createdAt,value
2019-03-15T00:01:42.934Z,4.55
2019-03-15T00:04:11.662Z,3.83
2019-03-15T00:06:40.106Z,5.83
2019-03-15T00:09:09.288Z,5.85
2019-03-15T00:11:37.782Z,4.53
2019-03-15T00:14:06.499Z,5.42
2019-03-15T00:16:34.926Z,5.35
2019-03-15T00:19:03.514Z,5.65
2019-03-15T00:21:31.955Z,6.00
2019-03-15T00:24:00.443Z,4.92
2019-03-15T00:26:28.887Z,5.80
2019-03-15T00:28:57.383Z,5.65
2019-03-15T00:31:25.820Z,5.17
2019-03-15T00:33:54.263Z,5.95
2019-03-15T00:36:22.693Z,5.25
2019-03-15T00:38:51.216Z,6.12
2019-03-15T00:41:19.641Z,5.05
2019-03-15T00:43:49.582Z,5.87
2019-03-15T00:46:18.287Z,7.40
2019-03-15T00:48:46.713Z,5.70
2019-03-15T00:51:15.171Z,6.55
2019-03-15T00:53:43.657Z,5.67
2019-03-15T00:56:12.094Z,6.83
2019-03-15T00:58:40.529Z,4.67
2019-03-15T01:01:08.964Z,5.00
2019-03-15T01:03:37.382Z,6.20
2019-03-15T01:06:05.827Z,6.83
2019-03-15T01:08:34.265Z,5.33
2019-03-15T01:11:02.692Z,5.85
2019-03-15T01:13:31.178Z,6.70
2019-03-15T01:15:59.636Z,6.05
2019-03-15T01:18:28.075Z,6.03
2019-03-15T01:20:56.511Z,6.10
2019-03-15T01:23:24.943Z,5.22
2019-03-15T01:25:53.401Z,6.00
2019-03-15T01:28:21.837Z,4.60
2019-03-15T01:30:50.291Z,5.15
2019-03-15T01:33:18.786Z,5.05
2019-03-15T01:35:47.236Z,5.25
2019-03-15T01:38:15.659Z,4.72
2019-03-15T01:40:44.095Z,5.90
2019-03-15T01:43:13.302Z,5.17
2019-03-15T01:45:41.873Z,4.72
2019-03-15T01:48:10.305Z,6.05
2019-03-15T01:50:38.730Z,5.65
2019-03-15T01:53:07.171Z,6.08
2019-03-15T01:55:35.611Z,5.67
2019-03-15T01:58:04.131Z,5.30
2019-03-15T02:00:32.571Z,5.47
2019-03-15T02:03:02.537Z,6.30
2019-03-15T02:05:31.130Z,5.42
2019-03-15T02:08:01.119Z,5.10
2019-03-15T02:10:29.553Z,5.85
2019-03-15T02:12:57.979Z,5.83
2019-03-15T02:15:26.431Z,6.42
2019-03-15T02:17:57.794Z,4.97
2019-03-15T02:20:27.294Z,6.35
2019-03-15T02:22:56.055Z,5.28
2019-03-15T02:25:24.557Z,4.47
2019-03-15T02:27:52.999Z,5.30
2019-03-15T02:30:21.534Z,5.97
2019-03-15T02:32:50.056Z,5.37
2019-03-15T02:35:19.917Z,5.03
2019-03-15T02:37:48.616Z,5.22
2019-03-15T02:40:17.045Z,5.47
2019-03-15T02:42:45.500Z,5.85
2019-03-15T02:45:14.137Z,6.17
2019-03-15T02:47:42.584Z,4.95
2019-03-15T02:50:11.091Z,4.75
2019-03-15T02:52:39.526Z,5.50
2019-03-15T02:55:08.417Z,5.53
2019-03-15T02:57:36.847Z,5.22
2019-03-15T03:00:09.847Z,6.30
2019-03-15T03:02:38.298Z,5.62
2019-03-15T03:05:09.129Z,4.47
2019-03-15T03:07:37.599Z,5.33
2019-03-15T03:10:08.545Z,7.58
2019-03-15T03:12:37.131Z,4.50
2019-03-15T03:15:09.958Z,4.35
2019-03-15T03:17:38.643Z,4.65
2019-03-15T03:20:09.174Z,4.95
2019-03-15T03:22:37.619Z,4.87
2019-03-15T03:25:06.788Z,5.35
2019-03-15T03:27:35.239Z,4.65
2019-03-15T03:30:10.052Z,4.65
2019-03-15T03:32:38.583Z,5.20
2019-03-15T03:35:09.543Z,4.37
2019-03-15T03:37:37.494Z,5.03
2019-03-15T03:40:07.472Z,4.67
2019-03-15T03:42:35.917Z,4.95
2019-03-15T03:45:05.060Z,4.65
2019-03-15T03:47:33.496Z,5.10
2019-03-15T03:50:01.920Z,5.92
2019-03-15T03:52:30.367Z,4.28
2019-03-15T03:55:01.555Z,4.70
2019-03-15T03:57:29.997Z,4.85
2019-03-15T03:59:58.421Z,5.22
2019-03-15T04:02:26.862Z,4.53
2019-03-15T04:04:55.862Z,4.97
2019-03-15T04:07:24.302Z,5.40
2019-03-15T04:09:52.743Z,4.80
2019-03-15T04:12:21.209Z,5.33
2019-03-15T04:14:49.719Z,4.62
2019-03-15T04:17:18.151Z,4.80
2019-03-15T04:19:46.607Z,4.37
2019-03-15T04:22:15.136Z,4.72
2019-03-15T04:24:43.567Z,5.90
2019-03-15T04:27:11.989Z,4.35
2019-03-15T04:29:40.418Z,5.83
2019-03-15T04:32:08.849Z,5.12
2019-03-15T04:34:37.337Z,4.42
2019-03-15T04:37:09.065Z,4.78
2019-03-15T04:39:36.034Z,4.55
2019-03-15T04:42:04.457Z,4.72
2019-03-15T04:44:32.895Z,3.58
2019-03-15T04:47:01.429Z,5.45
2019-03-15T04:49:29.851Z,4.28
2019-03-15T04:51:58.299Z,4.97
2019-03-15T04:54:26.714Z,4.37
2019-03-15T04:56:55.155Z,4.95
2019-03-15T04:59:24.179Z,4.00
2019-03-15T05:01:52.715Z,4.75
2019-03-15T05:04:21.153Z,4.25
2019-03-15T05:06:49.590Z,4.30
2019-03-15T05:09:18.024Z,4.72
2019-03-15T05:11:46.444Z,4.87
2019-03-15T05:14:14.887Z,4.00
2019-03-15T05:16:43.333Z,5.08
2019-03-15T05:19:11.757Z,5.37
2019-03-15T05:21:40.193Z,4.55
2019-03-15T05:24:08.703Z,5.08
2019-03-15T05:26:37.146Z,5.30
2019-03-15T05:29:05.596Z,5.42
2019-03-15T05:31:34.018Z,4.15
2019-03-15T05:34:02.463Z,4.53
2019-03-15T05:36:30.891Z,5.17
2019-03-15T05:38:59.339Z,4.08
2019-03-15T05:41:27.761Z,4.92
2019-03-15T05:43:56.208Z,4.10
2019-03-15T05:46:24.742Z,4.95
2019-03-15T05:48:53.174Z,4.75
2019-03-15T05:51:21.603Z,4.80
2019-03-15T05:53:50.042Z,6.08
2019-03-15T05:56:18.478Z,4.62
2019-03-15T05:58:46.906Z,5.67
2019-03-15T06:01:15.356Z,4.92
2019-03-15T06:03:48.886Z,5.40
2019-03-15T06:06:13.943Z,4.92
2019-03-15T06:08:42.382Z,5.55
2019-03-15T06:11:10.835Z,5.25
2019-03-15T06:13:39.263Z,5.60
2019-03-15T06:16:07.704Z,5.35
2019-03-15T06:18:36.143Z,5.97
2019-03-15T06:21:04.580Z,5.28
2019-03-15T06:23:33.023Z,5.28
2019-03-15T06:26:01.463Z,4.87
2019-03-15T06:28:39.100Z,5.12
2019-03-15T06:31:07.543Z,5.10
2019-03-15T06:33:35.979Z,4.95
2019-03-15T06:36:04.426Z,5.53
2019-03-15T06:38:33.697Z,4.85
2019-03-15T06:41:02.282Z,5.62
2019-03-15T06:43:30.735Z,5.25
2019-03-15T06:45:59.149Z,5.58
2019-03-15T06:48:28.257Z,5.53
2019-03-15T06:50:56.868Z,6.08
2019-03-15T06:53:25.306Z,6.28
2019-03-15T06:55:53.763Z,4.70
2019-03-15T06:58:22.267Z,6.83
2019-03-15T07:00:50.690Z,5.03
2019-03-15T07:03:19.130Z,5.55
2019-03-15T07:05:50.081Z,4.90
2019-03-15T07:08:18.497Z,5.95
2019-03-15T07:10:46.944Z,5.00
2019-03-15T07:13:15.374Z,4.92
2019-03-15T07:15:44.456Z,6.10
2019-03-15T07:18:13.339Z,5.33
2019-03-15T07:20:41.848Z,6.72
2019-03-15T07:23:16.318Z,5.87
2019-03-15T07:25:40.459Z,5.33
2019-03-15T07:28:08.898Z,5.30
2019-03-15T07:30:37.332Z,5.25
2019-03-15T07:33:05.769Z,6.25
2019-03-15T07:35:34.211Z,5.37
2019-03-15T07:38:02.654Z,5.00
2019-03-15T07:40:31.091Z,5.72
2019-03-15T07:43:03.392Z,4.85
2019-03-15T07:45:31.347Z,4.45
2019-03-15T07:47:59.780Z,5.53
2019-03-15T07:50:28.225Z,5.05
2019-03-15T07:52:56.662Z,4.70
2019-03-15T07:55:26.156Z,6.08
2019-03-15T07:57:54.613Z,4.90
2019-03-15T08:00:23.054Z,4.95
2019-03-15T08:02:53.174Z,5.10
2019-03-15T08:05:21.715Z,4.55
2019-03-15T08:07:50.144Z,5.75
2019-03-15T08:10:20.908Z,4.97
2019-03-15T08:12:49.782Z,5.45
2019-03-15T08:15:18.467Z,5.08
2019-03-15T08:17:46.902Z,5.95
2019-03-15T08:20:15.400Z,5.90
2019-03-15T08:22:43.851Z,5.67
2019-03-15T08:25:12.661Z,6.45
2019-03-15T08:27:41.103Z,6.22
2019-03-15T08:30:14.068Z,7.10
2019-03-15T08:32:43.862Z,6.70
2019-03-15T08:35:13.226Z,6.83
2019-03-15T08:37:41.737Z,6.78
2019-03-15T08:40:12.382Z,7.15
2019-03-15T08:42:40.808Z,7.58
2019-03-15T08:45:14.567Z,7.33
2019-03-15T08:47:43.007Z,7.00
2019-03-15T08:50:15.327Z,7.20
2019-03-15T08:52:44.257Z,7.20
2019-03-15T08:55:13.731Z,8.20
2019-03-15T08:57:42.175Z,6.37
2019-03-15T09:00:15.538Z,7.45
2019-03-15T09:02:44.047Z,6.75
2019-03-15T09:05:14.503Z,8.00
2019-03-15T09:07:42.944Z,8.33
2019-03-15T09:10:22.758Z,8.00
2019-03-15T09:12:43.827Z,8.73
2019-03-15T09:15:13.318Z,8.83
2019-03-15T09:17:41.841Z,8.68
2019-03-15T09:20:11.598Z,9.25
2019-03-15T09:22:40.052Z,8.60
2019-03-15T09:25:19.210Z,8.95
2019-03-15T09:27:40.699Z,10.15
2019-03-15T09:30:22.664Z,8.33
2019-03-15T09:32:41.906Z,9.20
2019-03-15T09:35:10.343Z,8.70
2019-03-15T09:37:38.770Z,9.20
2019-03-15T09:40:13.210Z,8.03
2019-03-15T09:42:41.647Z,7.60
2019-03-15T09:45:13.170Z,8.40
2019-03-15T09:47:41.606Z,8.55
2019-03-15T09:50:22.888Z,7.97
2019-03-15T09:52:41.856Z,9.65
2019-03-15T09:55:11.644Z,9.55
2019-03-15T09:57:40.159Z,9.75
2019-03-15T10:00:16.764Z,11.18
2019-03-15T10:02:45.553Z,10.65
2019-03-15T10:05:14.000Z,10.53
2019-03-15T10:07:43.705Z,10.58
2019-03-15T10:10:18.854Z,10.75
2019-03-15T10:12:47.522Z,9.85
2019-03-15T10:15:17.286Z,10.00
2019-03-15T10:17:45.859Z,10.95
2019-03-15T10:20:15.041Z,9.15
2019-03-15T10:22:43.529Z,10.03
2019-03-15T10:25:18.338Z,9.50
2019-03-15T10:27:46.777Z,8.58
2019-03-15T10:30:19.903Z,8.45
2019-03-15T10:32:48.430Z,7.97
2019-03-15T10:35:16.895Z,8.95
2019-03-15T10:37:45.351Z,6.87
2019-03-15T10:40:16.451Z,5.58
2019-03-15T10:42:44.874Z,4.75
2019-03-15T10:45:13.571Z,4.25
2019-03-15T10:47:42.554Z,5.22
2019-03-15T10:50:16.602Z,4.90
2019-03-15T10:52:45.043Z,3.85
2019-03-15T10:55:13.611Z,4.42
2019-03-15T10:57:42.128Z,3.60
2019-03-15T11:00:18.362Z,4.12
2019-03-15T11:02:46.890Z,4.47
2019-03-15T11:05:15.399Z,4.55
2019-03-15T11:07:43.834Z,3.72
2019-03-15T11:10:12.901Z,3.55
2019-03-15T11:12:41.418Z,4.25
2019-03-15T11:15:11.699Z,4.67
2019-03-15T11:17:40.140Z,4.22
2019-03-15T11:20:10.531Z,3.65
2019-03-15T11:22:38.971Z,3.50
2019-03-15T11:25:09.865Z,3.33
2019-03-15T11:27:38.307Z,4.58
2019-03-15T11:30:09.010Z,3.58
2019-03-15T11:32:37.437Z,4.20
2019-03-15T11:35:07.921Z,4.00
2019-03-15T11:37:36.363Z,3.17
2019-03-15T11:40:18.908Z,3.42
2019-03-15T11:42:45.977Z,3.33
2019-03-15T11:45:14.591Z,3.33
2019-03-15T11:48:01.274Z,3.27
2019-03-15T11:50:17.949Z,2.72
2019-03-15T11:52:46.391Z,3.20
2019-03-15T11:55:14.984Z,2.33
2019-03-15T11:57:43.494Z,3.12
2019-03-15T12:00:13.779Z,2.22
2019-03-15T12:02:42.442Z,2.20
2019-03-15T12:05:11.012Z,2.80
2019-03-15T12:07:39.687Z,2.60
2019-03-15T12:10:12.938Z,2.72
2019-03-15T12:12:41.365Z,2.40
2019-03-15T12:15:11.657Z,3.10
2019-03-15T12:17:40.098Z,2.25
2019-03-15T12:20:10.234Z,2.27
2019-03-15T12:22:38.820Z,2.75
2019-03-15T12:25:11.253Z,2.50
2019-03-15T12:27:39.707Z,2.40
2019-03-15T12:30:11.210Z,2.37
2019-03-15T12:32:39.714Z,2.10
2019-03-15T12:35:12.308Z,3.05
2019-03-15T12:37:40.757Z,2.42
2019-03-15T12:40:19.680Z,2.08
2019-03-15T12:42:48.131Z,1.95
2019-03-15T12:45:17.667Z,2.02
2019-03-15T12:47:46.151Z,2.33
2019-03-15T12:50:16.070Z,2.10
2019-03-15T12:52:48.707Z,1.82
2019-03-15T12:55:15.309Z,2.62
2019-03-15T12:57:43.756Z,2.65
2019-03-15T13:00:18.969Z,2.22
2019-03-15T13:02:47.426Z,2.65
2019-03-15T13:05:15.853Z,3.05
2019-03-15T13:07:44.306Z,2.50
2019-03-15T13:10:14.846Z,2.70
2019-03-15T13:12:43.297Z,2.60
2019-03-15T13:15:15.899Z,3.37
2019-03-15T13:17:44.338Z,2.35
2019-03-15T13:20:14.209Z,2.98
2019-03-15T13:22:42.669Z,2.55
2019-03-15T13:25:11.854Z,2.70
2019-03-15T13:27:40.349Z,1.98
2019-03-15T13:30:11.883Z,2.52
2019-03-15T13:32:40.319Z,2.60
2019-03-15T13:35:09.411Z,2.55
2019-03-15T13:37:38.204Z,2.02
2019-03-15T13:40:12.633Z,2.20
2019-03-15T13:42:41.077Z,1.92
2019-03-15T13:45:13.723Z,2.02
2019-03-15T13:47:42.165Z,2.20
2019-03-15T13:50:18.122Z,1.72
2019-03-15T13:52:46.583Z,1.85
2019-03-15T13:55:15.033Z,1.90
2019-03-15T13:57:43.471Z,2.20
2019-03-15T14:00:19.141Z,2.42
2019-03-15T14:02:47.599Z,2.35
2019-03-15T14:05:16.062Z,2.05
2019-03-15T14:07:44.552Z,2.12
2019-03-15T14:10:16.984Z,2.12
2019-03-15T14:12:45.491Z,1.92
2019-03-15T14:15:15.295Z,2.02
2019-03-15T14:17:43.787Z,1.50
2019-03-15T14:20:12.873Z,2.40
2019-03-15T14:22:41.711Z,2.10
2019-03-15T14:25:12.959Z,2.40
2019-03-15T14:27:41.397Z,2.05
2019-03-15T14:30:12.078Z,3.10
2019-03-15T14:32:40.530Z,2.10
2019-03-15T14:35:09.813Z,1.70
2019-03-15T14:37:38.314Z,2.62
2019-03-15T14:40:11.196Z,2.37
2019-03-15T14:42:39.884Z,2.35
2019-03-15T14:45:15.288Z,2.15
2019-03-15T14:47:43.770Z,2.40
2019-03-15T14:50:13.450Z,2.52
2019-03-15T14:52:43.430Z,2.70
2019-03-15T14:55:15.878Z,2.42
2019-03-15T14:57:52.096Z,2.20
2019-03-15T15:00:19.330Z,2.12
2019-03-15T15:02:47.939Z,2.47
2019-03-15T15:05:16.384Z,2.90
2019-03-15T15:07:44.826Z,2.70
2019-03-15T15:10:15.606Z,2.35
2019-03-15T15:12:44.124Z,2.58
2019-03-15T15:15:17.848Z,1.75
2019-03-15T15:17:46.403Z,2.98
2019-03-15T15:20:14.914Z,3.42
2019-03-15T15:22:43.364Z,2.00
2019-03-15T15:25:16.011Z,2.33
2019-03-15T15:27:44.455Z,2.47
2019-03-15T15:30:14.934Z,2.75
2019-03-15T15:32:43.385Z,2.42
2019-03-15T15:35:12.583Z,2.25
2019-03-15T15:37:41.031Z,2.70
2019-03-15T15:40:18.985Z,2.67
2019-03-15T15:42:47.497Z,2.30
2019-03-15T15:45:16.705Z,2.92
2019-03-15T15:47:45.211Z,2.45
2019-03-15T15:50:14.709Z,2.33
2019-03-15T15:52:43.229Z,2.77
2019-03-15T15:55:14.812Z,2.65
2019-03-15T15:57:43.276Z,3.12
2019-03-15T16:00:19.174Z,2.70
2019-03-15T16:02:47.613Z,2.35
2019-03-15T16:05:16.070Z,3.47
2019-03-15T16:07:44.511Z,2.10
2019-03-15T16:10:17.182Z,2.75
2019-03-15T16:12:44.175Z,2.65
2019-03-15T16:15:17.157Z,2.83
2019-03-15T16:17:46.056Z,2.92
2019-03-15T16:20:14.842Z,3.02
2019-03-15T16:22:43.362Z,3.27
2019-03-15T16:25:12.448Z,2.70
2019-03-15T16:27:40.953Z,2.85
2019-03-15T16:30:13.942Z,3.25
2019-03-15T16:32:42.400Z,3.27
2019-03-15T16:35:12.395Z,2.85
2019-03-15T16:37:41.199Z,3.05
2019-03-15T16:40:11.746Z,4.45
2019-03-15T16:42:40.179Z,3.50
2019-03-15T16:45:14.965Z,3.33
2019-03-15T16:47:41.997Z,3.55
2019-03-15T16:50:12.195Z,3.37
2019-03-15T16:52:40.727Z,3.67
2019-03-15T16:55:12.763Z,4.10
2019-03-15T16:57:41.353Z,2.83
2019-03-15T17:00:12.571Z,3.22
2019-03-15T17:02:41.110Z,3.75
2019-03-15T17:05:14.167Z,3.50
2019-03-15T17:07:43.005Z,4.08
2019-03-15T17:10:12.677Z,3.72
2019-03-15T17:12:41.123Z,3.80
2019-03-15T17:15:12.683Z,3.80
2019-03-15T17:17:41.140Z,3.42
2019-03-15T17:20:11.245Z,4.15
2019-03-15T17:22:39.754Z,4.10
2019-03-15T17:25:12.507Z,3.40
2019-03-15T17:27:41.027Z,4.10
2019-03-15T17:30:13.977Z,3.67
2019-03-15T17:32:42.431Z,4.47
2019-03-15T17:35:12.528Z,3.47
2019-03-15T17:37:41.236Z,3.80
2019-03-15T17:40:21.772Z,4.03
2019-03-15T17:42:50.308Z,3.60
2019-03-15T17:45:21.391Z,3.20
2019-03-15T17:47:49.813Z,3.65
2019-03-15T17:50:19.696Z,3.35
2019-03-15T17:52:48.203Z,5.00
2019-03-15T17:55:17.271Z,3.33
2019-03-15T17:57:46.254Z,3.95
2019-03-15T18:00:25.023Z,3.83
2019-03-15T18:02:53.571Z,4.03
2019-03-15T18:05:22.134Z,5.05
2019-03-15T18:07:50.583Z,4.17
2019-03-15T18:10:19.020Z,3.70
2019-03-15T18:12:47.534Z,3.83
2019-03-15T18:15:15.962Z,4.50
2019-03-15T18:17:44.407Z,3.72
2019-03-15T18:20:12.907Z,4.65
2019-03-15T18:22:41.355Z,3.35
2019-03-15T18:25:10.828Z,4.12
2019-03-15T18:27:39.254Z,3.85
2019-03-15T18:30:13.219Z,4.08
2019-03-15T18:32:41.666Z,3.72
2019-03-15T18:35:11.132Z,3.70
2019-03-15T18:37:39.571Z,3.60
2019-03-15T18:40:14.050Z,4.15
2019-03-15T18:42:42.681Z,4.67
2019-03-15T18:45:13.348Z,4.20
2019-03-15T18:47:41.833Z,4.67
2019-03-15T18:50:22.140Z,3.85
2019-03-15T18:52:50.774Z,5.05
2019-03-15T18:55:19.271Z,4.17
2019-03-15T18:57:47.723Z,4.53
2019-03-15T19:00:23.813Z,4.22
2019-03-15T19:02:52.248Z,4.62
2019-03-15T19:05:20.688Z,4.83
2019-03-15T19:07:49.194Z,4.00
2019-03-15T19:10:17.629Z,4.22
2019-03-15T19:12:46.219Z,4.60
2019-03-15T19:15:19.080Z,5.28
2019-03-15T19:17:47.505Z,5.37
2019-03-15T19:20:16.709Z,4.78
2019-03-15T19:22:45.320Z,3.98
2019-03-15T19:25:14.787Z,4.60
2019-03-15T19:27:44.343Z,4.92
2019-03-15T19:30:19.406Z,4.50
2019-03-15T19:35:15.502Z,4.55
2019-03-15T19:37:43.937Z,4.53
2019-03-15T19:40:19.407Z,5.33
2019-03-15T19:42:47.903Z,3.95
2019-03-15T19:45:19.426Z,3.90
2019-03-15T19:47:47.871Z,3.87
2019-03-15T19:50:21.311Z,4.33
2019-03-15T19:52:49.770Z,4.20
2019-03-15T19:55:18.348Z,4.95
2019-03-15T19:57:46.778Z,4.00
2019-03-15T20:00:19.430Z,4.00
2019-03-15T20:02:47.859Z,4.35
2019-03-15T20:05:16.289Z,4.42
2019-03-15T20:07:44.863Z,4.40
2019-03-15T20:10:17.355Z,4.03
2019-03-15T20:12:46.186Z,4.22
2019-03-15T20:15:16.170Z,4.12
2019-03-15T20:17:46.945Z,3.15
2019-03-15T20:20:16.728Z,3.92
2019-03-15T20:22:45.173Z,4.70
2019-03-15T20:25:15.054Z,4.65
2019-03-15T20:27:43.492Z,4.12
2019-03-15T20:30:26.254Z,4.35
2019-03-15T20:32:52.596Z,4.25
2019-03-15T20:35:21.039Z,4.42
2019-03-15T20:37:52.022Z,4.75
2019-03-15T20:40:20.456Z,3.72
2019-03-15T20:42:48.903Z,3.98
2019-03-15T20:45:26.156Z,4.78
2019-03-15T20:47:54.601Z,3.58
2019-03-15T20:50:23.034Z,3.90
2019-03-15T20:52:51.481Z,4.08
2019-03-15T20:55:19.986Z,3.60
2019-03-15T20:57:48.420Z,4.17
2019-03-15T21:00:34.426Z,3.33
2019-03-15T21:02:51.430Z,3.83
2019-03-15T21:05:19.941Z,3.70
2019-03-15T21:07:48.375Z,4.30
2019-03-15T21:10:20.289Z,3.98
2019-03-15T21:12:48.748Z,3.87
2019-03-15T21:15:20.072Z,3.55
2019-03-15T21:17:48.578Z,3.65
2019-03-15T21:20:22.567Z,4.17
2019-03-15T21:22:50.468Z,4.65
2019-03-15T21:25:18.947Z,4.83
2019-03-15T21:27:54.273Z,3.83
2019-03-15T21:30:22.755Z,3.72
2019-03-15T21:32:51.264Z,3.95
2019-03-15T21:35:19.719Z,3.40
2019-03-15T21:37:48.215Z,3.95
2019-03-15T21:40:17.819Z,3.67
2019-03-15T21:42:46.250Z,4.80
2019-03-15T21:45:14.758Z,3.12
2019-03-15T21:47:43.200Z,3.85
2019-03-15T21:50:15.755Z,4.47
2019-03-15T21:52:44.199Z,4.50
2019-03-15T21:55:12.647Z,3.83
2019-03-15T21:57:41.115Z,3.65
2019-03-15T22:00:22.403Z,4.28
2019-03-15T22:02:50.851Z,3.83
2019-03-15T22:05:19.294Z,7.28
2019-03-15T22:07:47.729Z,4.85
2019-03-15T22:10:16.853Z,5.62
2019-03-15T22:12:45.283Z,3.95
2019-03-15T22:15:14.068Z,4.17
2019-03-15T22:17:42.653Z,5.20
2019-03-15T22:20:12.528Z,3.58
2019-03-15T22:22:40.958Z,3.80
2019-03-15T22:25:09.946Z,4.67
2019-03-15T22:27:38.391Z,3.98
2019-03-15T22:30:11.922Z,4.75
2019-03-15T22:32:40.380Z,3.92
2019-03-15T22:35:10.679Z,5.42
2019-03-15T22:37:39.120Z,3.42
2019-03-15T22:40:09.989Z,4.17
2019-03-15T22:42:38.642Z,3.45
2019-03-15T22:45:22.495Z,4.83
2019-03-15T22:47:54.954Z,4.67
2019-03-15T22:50:26.268Z,4.22
2019-03-15T22:52:54.719Z,3.52
2019-03-15T22:55:23.153Z,4.35
2019-03-15T22:57:59.816Z,3.55
2019-03-15T23:00:23.462Z,4.08
2019-03-15T23:02:52.069Z,4.75
2019-03-15T23:05:20.684Z,3.60
2019-03-15T23:07:50.177Z,4.35
2019-03-15T23:10:18.642Z,3.77
2019-03-15T23:12:47.090Z,4.65
2019-03-15T23:15:17.062Z,3.90
2019-03-15T23:17:45.508Z,4.10
2019-03-15T23:20:14.331Z,3.65
2019-03-15T23:22:54.979Z,4.10
2019-03-15T23:25:23.763Z,4.33
2019-03-15T23:27:52.207Z,3.35
2019-03-15T23:30:21.114Z,3.35
2019-03-15T23:32:49.544Z,3.40
2019-03-15T23:35:18.019Z,3.33
2019-03-15T23:37:46.469Z,3.58
2019-03-15T23:40:14.958Z,3.15
2019-03-15T23:42:43.441Z,4.62
2019-03-15T23:45:12.050Z,3.92
2019-03-15T23:47:40.511Z,3.42
2019-03-15T23:50:11.481Z,3.72
2019-03-15T23:52:39.942Z,4.37
2019-03-15T23:55:08.665Z,4.67
2019-03-15T23:57:37.189Z,2.62
